createdAt,value
2018-03-15T00:00:42.493Z,25.58
2018-03-15T00:03:15.622Z,22.30
2018-03-15T00:05:43.041Z,25.73
2018-03-15T00:08:10.442Z,21.33
2018-03-15T00:10:37.847Z,22.73
2018-03-15T00:13:05.263Z,25.95
2018-03-15T00:15:32.671Z,24.80
2018-03-15T00:18:00.107Z,21.23
2018-03-15T00:20:27.505Z,23.42
2018-03-15T00:22:54.925Z,23.62
2018-03-15T00:25:22.333Z,21.25
2018-03-15T00:27:49.749Z,24.63
2018-03-15T00:30:17.166Z,23.30
2018-03-15T00:32:44.573Z,23.15
2018-03-15T00:35:11.967Z,31.23
2018-03-15T00:37:39.395Z,23.48
2018-03-15T00:40:06.799Z,22.05
2018-03-15T00:42:34.209Z,20.23
2018-03-15T00:45:01.620Z,23.25
2018-03-15T00:47:29.033Z,22.67
2018-03-15T00:49:56.447Z,23.75
2018-03-15T00:52:23.862Z,24.92
2018-03-15T00:54:51.274Z,26.10
2018-03-15T00:57:18.708Z,28.58
2018-03-15T00:59:46.101Z,20.83
2018-03-15T01:02:13.523Z,28.52
2018-03-15T01:04:40.943Z,26.15
2018-03-15T01:07:08.352Z,20.10
2018-03-15T01:09:35.760Z,20.23
2018-03-15T01:12:03.178Z,25.55
2018-03-15T01:14:30.585Z,25.83
2018-03-15T01:16:57.988Z,24.52
2018-03-15T01:19:25.404Z,25.30
2018-03-15T01:21:52.807Z,20.88
2018-03-15T01:24:20.230Z,26.70
2018-03-15T01:26:47.630Z,23.58
2018-03-15T01:29:15.044Z,24.80
2018-03-15T01:31:42.450Z,24.98
2018-03-15T01:34:09.861Z,26.65
2018-03-15T01:36:37.278Z,27.70
2018-03-15T01:39:04.686Z,23.98
2018-03-15T01:41:32.097Z,28.75
2018-03-15T01:43:59.511Z,24.27
2018-03-15T01:46:26.912Z,28.62
2018-03-15T01:48:54.321Z,26.80
2018-03-15T01:51:21.730Z,31.75
2018-03-15T01:53:49.141Z,24.73
2018-03-15T01:56:16.555Z,27.58
2018-03-15T01:58:43.960Z,23.87
2018-03-15T02:01:11.368Z,33.95
2018-03-15T02:03:38.782Z,24.55
2018-03-15T02:06:06.181Z,28.80
2018-03-15T02:08:33.603Z,34.42
2018-03-15T02:11:01.013Z,26.60
2018-03-15T02:13:28.449Z,30.15
2018-03-15T02:15:55.849Z,24.05
2018-03-15T02:18:23.272Z,26.62
2018-03-15T02:20:50.682Z,25.95
2018-03-15T02:23:18.093Z,24.45
2018-03-15T02:25:45.502Z,25.67
2018-03-15T02:28:12.909Z,31.25
2018-03-15T02:30:40.330Z,30.10
2018-03-15T02:33:07.730Z,40.63
2018-03-15T02:35:35.155Z,43.45
2018-03-15T02:38:02.550Z,34.45
2018-03-15T02:40:29.967Z,33.67
2018-03-15T02:42:57.373Z,39.67
2018-03-15T02:45:24.806Z,31.02
2018-03-15T02:47:52.214Z,31.52
2018-03-15T02:50:19.627Z,32.72
2018-03-15T02:52:47.073Z,32.22
2018-03-15T02:55:14.542Z,35.10
2018-03-15T02:57:41.946Z,30.62
2018-03-15T03:00:09.366Z,30.55
2018-03-15T03:02:36.765Z,29.15
2018-03-15T03:05:04.177Z,29.20
2018-03-15T03:07:31.588Z,32.15
2018-03-15T03:09:58.997Z,41.03
2018-03-15T03:12:26.398Z,34.10
2018-03-15T03:14:53.816Z,34.95
2018-03-15T03:17:21.228Z,42.70
2018-03-15T03:19:48.644Z,40.70
2018-03-15T03:22:16.078Z,36.17
2018-03-15T03:24:43.509Z,41.40
2018-03-15T03:27:10.902Z,39.72
2018-03-15T03:29:38.308Z,40.78
2018-03-15T03:32:05.715Z,44.00
2018-03-15T03:34:33.120Z,46.90
2018-03-15T03:37:00.534Z,50.17
2018-03-15T03:39:27.940Z,56.28
2018-03-15T03:41:55.354Z,47.30
2018-03-15T03:44:22.761Z,40.30
2018-03-15T03:46:50.169Z,42.28
2018-03-15T03:49:17.867Z,33.35
2018-03-15T03:51:45.284Z,29.37
2018-03-15T03:54:12.694Z,38.83
2018-03-15T03:56:40.101Z,43.97
2018-03-15T03:59:07.508Z,59.95
2018-03-15T04:01:34.927Z,55.28
2018-03-15T04:04:02.335Z,58.50
2018-03-15T04:06:29.760Z,54.40
2018-03-15T04:08:57.165Z,57.22
2018-03-15T04:11:24.576Z,54.92
2018-03-15T04:13:51.974Z,52.92
2018-03-15T04:16:19.391Z,49.83
2018-03-15T04:18:46.794Z,48.65
2018-03-15T04:21:14.206Z,54.20
2018-03-15T04:23:41.614Z,50.70
2018-03-15T04:26:09.032Z,45.85
2018-03-15T04:28:36.434Z,52.35
2018-03-15T04:31:03.863Z,58.95
2018-03-15T04:33:31.278Z,48.72
2018-03-15T04:35:58.682Z,42.03
2018-03-15T04:38:26.092Z,38.20
2018-03-15T04:40:53.493Z,34.08
2018-03-15T04:43:20.909Z,38.88
2018-03-15T04:45:48.310Z,32.30
2018-03-15T04:48:15.738Z,42.05
2018-03-15T04:50:43.141Z,43.70
2018-03-15T04:53:10.554Z,48.00
2018-03-15T04:55:37.953Z,68.22
2018-03-15T04:58:05.385Z,67.75
2018-03-15T05:00:32.787Z,72.40
2018-03-15T05:03:00.202Z,60.58
2018-03-15T05:05:27.615Z,53.20
2018-03-15T05:07:55.021Z,60.05
2018-03-15T05:10:23.383Z,59.13
2018-03-15T05:12:50.806Z,61.30
2018-03-15T05:15:18.210Z,63.22
2018-03-15T05:17:46.391Z,62.85
2018-03-15T05:20:13.822Z,68.22
2018-03-15T05:22:41.233Z,77.05
2018-03-15T05:25:08.644Z,57.42
2018-03-15T05:27:36.059Z,69.60
2018-03-15T05:30:03.547Z,71.55
2018-03-15T05:32:30.937Z,62.80
2018-03-15T05:34:58.346Z,68.15
2018-03-15T05:37:25.771Z,61.97
2018-03-15T05:39:53.181Z,61.97
2018-03-15T05:42:20.599Z,55.58
2018-03-15T05:44:48.009Z,48.38
2018-03-15T05:47:15.455Z,49.47
2018-03-15T05:49:42.872Z,42.55
2018-03-15T05:52:10.812Z,52.17
2018-03-15T05:54:38.622Z,67.50
2018-03-15T05:57:06.026Z,63.55
2018-03-15T05:59:33.454Z,60.40
2018-03-15T06:02:00.858Z,51.28
2018-03-15T06:04:28.270Z,53.25
2018-03-15T06:06:55.684Z,48.75
2018-03-15T06:09:23.094Z,39.72
2018-03-15T06:11:50.499Z,38.88
2018-03-15T06:14:17.963Z,39.78
2018-03-15T06:16:45.317Z,42.03
2018-03-15T06:19:12.783Z,40.47
2018-03-15T06:21:40.156Z,40.58
2018-03-15T06:24:07.566Z,37.60
2018-03-15T06:26:34.977Z,41.45
2018-03-15T06:29:02.391Z,49.60
2018-03-15T06:31:29.798Z,39.47
2018-03-15T06:33:57.228Z,44.03
2018-03-15T06:36:24.629Z,45.08
2018-03-15T06:38:52.038Z,37.97
2018-03-15T06:41:19.454Z,42.95
2018-03-15T06:43:46.855Z,40.20
2018-03-15T06:46:14.272Z,43.97
2018-03-15T06:48:41.679Z,44.42
2018-03-15T06:51:09.106Z,45.17
2018-03-15T06:53:36.505Z,43.40
2018-03-15T06:56:03.942Z,40.22
2018-03-15T06:58:31.349Z,40.55
2018-03-15T07:00:58.763Z,43.67
2018-03-15T07:03:26.174Z,38.33
2018-03-15T07:05:53.586Z,39.03
2018-03-15T07:08:20.997Z,35.63
2018-03-15T07:10:48.414Z,42.15
2018-03-15T07:13:15.821Z,39.70
2018-03-15T07:15:43.239Z,39.10
2018-03-15T07:18:10.647Z,37.05
2018-03-15T07:20:38.070Z,37.15
2018-03-15T07:23:05.491Z,33.45
2018-03-15T07:25:32.906Z,35.20
2018-03-15T07:28:00.309Z,33.55
2018-03-15T07:30:27.788Z,34.28
2018-03-15T07:32:55.138Z,28.98
2018-03-15T07:35:22.560Z,28.95
2018-03-15T07:37:49.962Z,29.73
2018-03-15T07:40:17.384Z,30.98
2018-03-15T07:42:44.794Z,32.65
2018-03-15T07:45:12.208Z,33.95
2018-03-15T07:47:39.617Z,37.65
2018-03-15T07:50:07.021Z,36.58
2018-03-15T07:52:34.431Z,32.20
2018-03-15T07:55:01.848Z,36.97
2018-03-15T07:57:29.257Z,30.37
2018-03-15T07:59:56.665Z,37.75
2018-03-15T08:02:24.080Z,34.30
2018-03-15T08:04:51.493Z,37.78
2018-03-15T08:07:18.920Z,35.47
2018-03-15T08:09:46.327Z,41.92
2018-03-15T08:12:13.746Z,32.25
2018-03-15T08:14:41.155Z,31.95
2018-03-15T08:17:08.574Z,32.80
2018-03-15T08:19:35.990Z,28.58
2018-03-15T08:22:03.411Z,23.95
2018-03-15T08:24:30.819Z,29.65
2018-03-15T08:26:58.248Z,25.73
2018-03-15T08:29:25.648Z,29.30
2018-03-15T08:31:53.069Z,27.92
2018-03-15T08:34:20.473Z,27.58
2018-03-15T08:36:47.900Z,24.17
2018-03-15T08:39:15.309Z,25.25
2018-03-15T08:41:42.735Z,27.95
2018-03-15T08:44:10.144Z,27.37
2018-03-15T08:46:37.574Z,28.52
2018-03-15T08:49:04.981Z,27.75
2018-03-15T08:51:32.411Z,30.73
2018-03-15T08:53:59.818Z,24.92
2018-03-15T08:56:27.237Z,26.75
2018-03-15T08:58:54.686Z,24.15
2018-03-15T09:01:22.122Z,24.42
2018-03-15T09:03:49.530Z,21.50
2018-03-15T09:06:16.933Z,21.27
2018-03-15T09:08:44.389Z,18.35
2018-03-15T09:11:11.762Z,17.77
2018-03-15T09:13:39.189Z,16.83
2018-03-15T09:16:06.595Z,16.92
2018-03-15T09:18:34.033Z,14.63
2018-03-15T09:21:01.433Z,14.40
2018-03-15T09:23:28.845Z,11.85
2018-03-15T09:25:56.263Z,12.88
2018-03-15T09:28:23.692Z,13.52
2018-03-15T09:30:51.095Z,15.35
2018-03-15T09:33:18.505Z,14.50
2018-03-15T09:35:45.918Z,13.88
2018-03-15T09:40:47.174Z,12.40
2018-03-15T09:43:14.599Z,12.95
2018-03-15T09:45:42.041Z,15.98
2018-03-15T09:48:09.454Z,13.48
2018-03-15T09:50:36.859Z,16.25
2018-03-15T09:53:04.278Z,13.50
2018-03-15T09:55:31.689Z,15.23
2018-03-15T09:57:59.104Z,13.02
2018-03-15T10:00:26.517Z,12.18
2018-03-15T10:02:53.944Z,11.15
2018-03-15T10:05:21.359Z,12.95
2018-03-15T10:10:22.639Z,11.50
2018-03-15T10:12:50.071Z,14.07
2018-03-15T10:15:17.479Z,16.12
2018-03-15T10:17:44.886Z,14.27
2018-03-15T10:20:12.309Z,11.00
2018-03-15T10:22:39.718Z,11.38
2018-03-15T10:25:13.768Z,11.90
2018-03-15T10:27:34.545Z,14.60
2018-03-15T10:30:01.977Z,15.48
2018-03-15T10:32:29.386Z,13.52
2018-03-15T10:35:02.409Z,11.75
2018-03-15T10:37:29.820Z,12.07
2018-03-15T10:39:57.252Z,11.65
2018-03-15T10:42:24.669Z,15.68
2018-03-15T10:44:52.102Z,14.23
2018-03-15T10:47:19.510Z,9.75
2018-03-15T10:49:47.443Z,10.63
2018-03-15T10:52:14.873Z,11.82
2018-03-15T10:54:42.301Z,10.35
2018-03-15T10:59:43.624Z,9.57
2018-03-15T11:02:16.759Z,9.60
2018-03-15T11:07:52.138Z,13.35
2018-03-15T11:10:19.576Z,12.25
2018-03-15T11:12:46.990Z,10.13
2018-03-15T11:15:14.412Z,10.53
2018-03-15T11:17:41.832Z,13.27
2018-03-15T11:20:09.261Z,10.82
2018-03-15T11:22:36.673Z,12.50
2018-03-15T11:25:04.086Z,10.30
2018-03-15T11:27:31.506Z,10.45
2018-03-15T11:29:58.925Z,10.43
2018-03-15T11:32:26.338Z,9.50
2018-03-15T11:34:53.763Z,11.32
2018-03-15T11:37:21.179Z,10.70
2018-03-15T11:39:48.594Z,12.40
2018-03-15T11:42:16.011Z,10.32
2018-03-15T11:44:43.429Z,12.07
2018-03-15T11:47:10.850Z,9.10
2018-03-15T11:49:38.265Z,13.05
2018-03-15T11:52:05.730Z,9.05
2018-03-15T11:54:33.154Z,11.07
2018-03-15T11:57:00.582Z,9.82
2018-03-15T11:59:27.994Z,9.95
2018-03-15T12:01:55.423Z,10.25
2018-03-15T12:04:22.840Z,8.75
2018-03-15T12:06:50.264Z,9.45
2018-03-15T12:09:17.680Z,10.85
2018-03-15T12:11:45.094Z,10.23
2018-03-15T12:14:12.505Z,12.40
2018-03-15T12:16:39.938Z,9.93
2018-03-15T12:19:07.350Z,9.15
2018-03-15T12:21:34.764Z,10.93
2018-03-15T12:24:02.176Z,9.75
2018-03-15T12:26:29.594Z,11.07
2018-03-15T12:28:57.006Z,10.93
2018-03-15T12:31:24.422Z,12.37
2018-03-15T12:33:51.828Z,11.77
2018-03-15T12:36:19.250Z,10.98
2018-03-15T12:38:46.667Z,12.80
2018-03-15T12:41:14.413Z,11.57
2018-03-15T12:43:41.822Z,10.18
2018-03-15T12:46:09.238Z,13.82
2018-03-15T12:48:36.670Z,11.40
2018-03-15T12:51:04.074Z,17.42
2018-03-15T12:53:31.495Z,11.80
2018-03-15T12:55:58.899Z,12.30
2018-03-15T12:58:26.306Z,9.67
2018-03-15T13:00:53.705Z,11.67
2018-03-15T13:03:21.130Z,10.40
2018-03-15T13:05:48.546Z,14.00
2018-03-15T13:08:15.962Z,9.07
2018-03-15T13:10:43.389Z,18.08
2018-03-15T13:13:10.806Z,10.90
2018-03-15T13:15:38.210Z,10.95
2018-03-15T13:18:05.637Z,9.45
2018-03-15T13:20:33.046Z,11.23
2018-03-15T13:23:00.467Z,9.18
2018-03-15T13:25:27.873Z,13.02
2018-03-15T13:27:55.286Z,10.13
2018-03-15T13:30:22.694Z,9.80
2018-03-15T13:32:50.096Z,9.93
2018-03-15T13:35:17.505Z,10.33
2018-03-15T13:37:44.921Z,11.20
2018-03-15T13:40:12.333Z,11.35
2018-03-15T13:42:39.749Z,10.23
2018-03-15T13:45:07.171Z,11.48
2018-03-15T13:47:34.587Z,11.12
2018-03-15T13:50:02.006Z,12.60
2018-03-15T13:52:29.414Z,10.40
2018-03-15T13:54:56.829Z,12.48
2018-03-15T13:57:24.241Z,9.20
2018-03-15T13:59:51.654Z,9.50
2018-03-15T14:02:19.056Z,11.50
2018-03-15T14:04:46.477Z,8.98
2018-03-15T14:07:13.888Z,10.13
2018-03-15T14:09:41.295Z,9.73
2018-03-15T14:12:08.708Z,10.35
2018-03-15T14:14:36.126Z,9.57
2018-03-15T14:17:03.526Z,14.00
2018-03-15T14:19:30.939Z,9.30
2018-03-15T14:21:58.345Z,12.05
2018-03-15T14:24:25.775Z,11.57
2018-03-15T14:26:53.181Z,9.90
2018-03-15T14:29:20.623Z,12.73
2018-03-15T14:31:48.006Z,15.75
2018-03-15T14:34:15.425Z,9.95
2018-03-15T14:36:42.839Z,12.00
2018-03-15T14:39:10.271Z,11.65
2018-03-15T14:41:37.694Z,13.43
2018-03-15T14:44:05.117Z,11.93
2018-03-15T14:46:32.565Z,12.05
2018-03-15T14:48:59.952Z,12.40
2018-03-15T14:51:27.408Z,11.47
2018-03-15T14:53:54.769Z,12.77
2018-03-15T14:56:22.202Z,13.75
2018-03-15T14:58:49.619Z,13.70
2018-03-15T15:01:17.042Z,12.00
2018-03-15T15:03:44.463Z,12.37
2018-03-15T15:06:11.881Z,11.88
2018-03-15T15:08:39.303Z,14.30
2018-03-15T15:11:06.733Z,12.98
2018-03-15T15:13:34.142Z,13.73
2018-03-15T15:16:01.577Z,14.10
2018-03-15T15:18:28.994Z,13.30
2018-03-15T15:20:56.414Z,12.95
2018-03-15T15:23:23.823Z,17.77
2018-03-15T15:25:51.254Z,15.40
2018-03-15T15:28:18.670Z,14.00
2018-03-15T15:30:46.101Z,17.70
2018-03-15T15:33:13.523Z,14.95
2018-03-15T15:35:40.946Z,14.07
2018-03-15T15:38:08.358Z,18.98
2018-03-15T15:40:35.785Z,17.60
2018-03-15T15:43:03.207Z,15.60
2018-03-15T15:45:30.626Z,12.98
2018-03-15T15:47:58.038Z,14.82
2018-03-15T15:50:25.505Z,13.00
2018-03-15T15:52:52.938Z,13.27
2018-03-15T15:55:20.357Z,15.32
2018-03-15T15:57:47.794Z,15.20
2018-03-15T16:00:15.213Z,14.20
2018-03-15T16:02:42.656Z,14.63
2018-03-15T16:05:10.074Z,13.50
2018-03-15T16:07:37.498Z,18.15
2018-03-15T16:10:04.902Z,18.17
2018-03-15T16:12:32.334Z,17.98
2018-03-15T16:14:59.742Z,15.20
2018-03-15T16:17:27.181Z,13.20
2018-03-15T16:19:54.593Z,18.08
2018-03-15T16:22:22.014Z,18.60
2018-03-15T16:24:49.426Z,16.17
2018-03-15T16:27:16.855Z,18.27
2018-03-15T16:29:44.258Z,14.80
2018-03-15T16:32:11.707Z,12.93
2018-03-15T16:34:39.096Z,12.18
2018-03-15T16:37:06.521Z,16.27
2018-03-15T16:39:33.946Z,17.33
2018-03-15T16:42:01.370Z,23.12
2018-03-15T16:44:28.777Z,15.00
2018-03-15T16:46:56.211Z,16.27
2018-03-15T16:49:23.626Z,17.63
2018-03-15T16:51:51.054Z,13.52
2018-03-15T16:54:18.462Z,13.43
2018-03-15T16:56:45.953Z,12.15
2018-03-15T16:59:13.322Z,16.42
2018-03-15T17:01:40.743Z,17.00
2018-03-15T17:04:08.180Z,15.90
2018-03-15T17:06:35.596Z,15.88
2018-03-15T17:09:03.012Z,17.02
2018-03-15T17:11:30.438Z,18.67
2018-03-15T17:13:57.868Z,16.73
2018-03-15T17:16:25.282Z,15.32
2018-03-15T17:18:52.717Z,15.00
2018-03-15T17:21:20.129Z,16.17
2018-03-15T17:23:47.554Z,13.40
2018-03-15T17:26:15.005Z,13.40
2018-03-15T17:28:42.451Z,18.45
2018-03-15T17:31:09.864Z,15.18
2018-03-15T17:33:37.282Z,12.45
2018-03-15T17:36:04.719Z,14.68
2018-03-15T17:38:32.133Z,14.85
2018-03-15T17:40:59.554Z,16.00
2018-03-15T17:43:26.989Z,18.48
2018-03-15T17:45:54.399Z,16.40
2018-03-15T17:48:21.838Z,17.83
2018-03-15T17:50:49.263Z,16.45
2018-03-15T17:53:16.697Z,16.00
2018-03-15T17:55:44.109Z,18.65
2018-03-15T17:58:11.534Z,20.05
2018-03-15T18:00:38.944Z,16.52
2018-03-15T18:03:06.357Z,16.67
2018-03-15T18:05:33.774Z,15.40
2018-03-15T18:08:01.206Z,15.18
2018-03-15T18:10:28.625Z,21.52
2018-03-15T18:12:56.071Z,19.30
2018-03-15T18:15:23.478Z,19.03
2018-03-15T18:17:50.882Z,31.50
2018-03-15T18:20:18.299Z,21.90
2018-03-15T18:22:45.708Z,20.48
2018-03-15T18:25:13.263Z,24.50
2018-03-15T18:27:40.573Z,34.10
2018-03-15T18:30:07.998Z,30.85
2018-03-15T18:32:35.418Z,30.15
2018-03-15T18:35:02.851Z,26.08
2018-03-15T18:37:30.273Z,22.25
2018-03-15T18:39:57.701Z,19.23
2018-03-15T18:42:25.130Z,18.10
2018-03-15T18:44:52.565Z,17.73
2018-03-15T18:47:20.010Z,23.48
2018-03-15T18:49:47.451Z,21.27
2018-03-15T18:52:15.069Z,25.30
2018-03-15T18:54:42.501Z,24.73
2018-03-15T18:57:09.909Z,22.05
2018-03-15T18:59:37.327Z,20.10
2018-03-15T19:02:04.733Z,25.95
2018-03-15T19:04:32.158Z,33.00
2018-03-15T19:06:59.569Z,25.55
2018-03-15T19:09:26.992Z,30.33
2018-03-15T19:11:54.402Z,27.45
2018-03-15T19:14:21.825Z,26.08
2018-03-15T19:16:49.258Z,25.67
2018-03-15T19:19:16.663Z,25.02
2018-03-15T19:21:44.085Z,24.00
2018-03-15T19:24:11.503Z,26.30
2018-03-15T19:26:38.925Z,21.92
2018-03-15T19:29:06.343Z,25.12
2018-03-15T19:31:33.759Z,23.90
2018-03-15T19:34:01.170Z,20.90
2018-03-15T19:36:28.594Z,23.98
2018-03-15T19:38:56.009Z,28.25
2018-03-15T19:41:23.443Z,23.95
2018-03-15T19:43:50.837Z,26.95
2018-03-15T19:46:18.269Z,30.60
2018-03-15T19:48:45.669Z,26.42
2018-03-15T19:51:13.083Z,26.60
2018-03-15T19:53:40.502Z,35.35
2018-03-15T19:56:07.925Z,21.83
2018-03-15T19:58:35.334Z,31.87
2018-03-15T20:01:02.765Z,24.10
2018-03-15T20:03:30.165Z,27.87
2018-03-15T20:05:57.622Z,27.73
2018-03-15T20:08:25.072Z,30.58
2018-03-15T20:10:52.466Z,35.78
2018-03-15T20:13:19.913Z,27.70
2018-03-15T20:15:49.127Z,30.67
2018-03-15T20:18:16.584Z,32.88
2018-03-15T20:20:43.957Z,20.12
2018-03-15T20:23:16.838Z,28.00
2018-03-15T20:25:44.248Z,25.80
2018-03-15T20:28:17.319Z,20.17
2018-03-15T20:30:44.769Z,20.65
2018-03-15T20:36:16.546Z,24.75
2018-03-15T20:38:43.946Z,24.08
2018-03-15T20:41:16.830Z,24.00
2018-03-15T20:43:45.994Z,19.45
2018-03-15T20:46:19.019Z,21.10
2018-03-15T20:48:52.021Z,28.45
2018-03-15T20:51:19.450Z,24.77
2018-03-15T20:53:46.861Z,20.75
2018-03-15T20:56:14.285Z,18.33
2018-03-15T20:58:41.694Z,15.13
2018-03-15T21:01:09.112Z,13.57
2018-03-15T21:03:36.523Z,17.45
2018-03-15T21:06:03.937Z,17.50
2018-03-15T21:08:31.350Z,15.27
2018-03-15T21:10:58.759Z,16.85
2018-03-15T21:13:26.168Z,19.42
2018-03-15T21:15:53.582Z,16.23
2018-03-15T21:18:21.019Z,20.67
2018-03-15T21:20:48.421Z,18.98
2018-03-15T21:23:15.849Z,18.15
2018-03-15T21:25:43.261Z,17.08
2018-03-15T21:28:10.687Z,20.98
2018-03-15T21:30:38.353Z,18.00
2018-03-15T21:33:05.765Z,16.58
2018-03-15T21:35:33.181Z,17.17
2018-03-15T21:38:06.265Z,17.58
2018-03-15T21:40:33.678Z,16.67
2018-03-15T21:43:01.096Z,21.85
2018-03-15T21:45:28.505Z,16.70
2018-03-15T21:47:55.929Z,21.27
2018-03-15T21:50:23.368Z,20.17
2018-03-15T21:52:50.858Z,19.98
2018-03-15T21:55:18.262Z,20.85
2018-03-15T21:57:45.696Z,21.62
2018-03-15T22:02:40.318Z,21.08
2018-03-15T22:05:07.784Z,18.87
2018-03-15T22:07:35.241Z,23.95
2018-03-15T22:10:02.703Z,19.08
2018-03-15T22:12:30.154Z,18.67
2018-03-15T22:14:57.626Z,16.10
2018-03-15T22:17:25.081Z,20.88
2018-03-15T22:19:52.532Z,19.80
2018-03-15T22:22:19.990Z,20.88
2018-03-15T22:24:47.448Z,17.85
2018-03-15T22:27:14.902Z,19.27
2018-03-15T22:29:42.357Z,16.92
2018-03-15T22:32:09.804Z,18.60
2018-03-15T22:34:37.262Z,16.37
2018-03-15T22:37:04.695Z,12.60
2018-03-15T22:39:32.148Z,12.07
2018-03-15T22:41:59.601Z,11.07
2018-03-15T22:44:27.060Z,15.98
2018-03-15T22:46:54.501Z,10.15
2018-03-15T22:49:21.954Z,10.68
2018-03-15T22:51:49.391Z,11.65
2018-03-15T22:54:16.852Z,11.82
2018-03-15T22:56:44.291Z,12.37
2018-03-15T22:59:11.759Z,11.90
2018-03-15T23:01:39.205Z,13.48
2018-03-15T23:04:06.664Z,10.55
2018-03-15T23:06:34.112Z,10.43
2018-03-15T23:09:01.577Z,12.63
2018-03-15T23:11:29.019Z,9.63
2018-03-15T23:13:56.486Z,12.05
2018-03-15T23:16:23.935Z,11.38
2018-03-15T23:18:51.386Z,11.63
2018-03-15T23:21:18.840Z,15.18
2018-03-15T23:23:46.273Z,10.65
2018-03-15T23:26:13.829Z,13.93
2018-03-15T23:28:41.272Z,15.32
2018-03-15T23:31:08.730Z,13.35
2018-03-15T23:33:36.185Z,12.57
2018-03-15T23:36:03.632Z,12.55
2018-03-15T23:38:31.074Z,14.82
2018-03-15T23:40:58.537Z,11.75
2018-03-15T23:43:26.041Z,12.55
2018-03-15T23:45:53.468Z,14.07
2018-03-15T23:48:20.927Z,13.32
2018-03-15T23:50:48.397Z,17.23
2018-03-15T23:53:15.850Z,13.20
2018-03-15T23:55:43.324Z,13.23
2018-03-15T23:58:10.778Z,11.55
